createdAt,value
2023-01-28T00:01:24.365Z,4.56
2023-01-28T00:03:51.982Z,4.58
2023-01-28T00:06:19.008Z,4.59
2023-01-28T00:08:45.825Z,4.61
2023-01-28T00:11:13.656Z,4.62
2023-01-28T00:13:40.628Z,4.64
2023-01-28T00:16:08.938Z,4.66
2023-01-28T00:18:36.576Z,4.67
2023-01-28T00:21:07.033Z,4.70
2023-01-28T00:23:35.927Z,4.71
2023-01-28T00:26:05.040Z,4.72
2023-01-28T00:28:31.672Z,4.71
2023-01-28T00:30:58.089Z,4.71
2023-01-28T00:33:24.516Z,4.69
2023-01-28T00:36:01.294Z,4.69
2023-01-28T00:38:28.320Z,4.67
2023-01-28T00:40:55.208Z,4.64
2023-01-28T00:43:21.855Z,4.61
2023-01-28T00:45:50.232Z,4.58
2023-01-28T00:48:16.784Z,4.56
2023-01-28T00:50:45.493Z,4.55
2023-01-28T00:53:11.921Z,4.55
2023-01-28T00:55:38.436Z,4.54
2023-01-28T00:58:04.863Z,4.54
2023-01-28T01:00:31.242Z,4.55
2023-01-28T01:02:57.629Z,4.55
2023-01-28T01:05:24.123Z,4.55
2023-01-28T01:07:50.554Z,4.55
2023-01-28T01:10:19.289Z,4.53
2023-01-28T01:12:46.685Z,4.52
2023-01-28T01:15:14.238Z,4.51
2023-01-28T01:17:43.733Z,4.49
2023-01-28T01:20:15.188Z,4.49
2023-01-28T01:22:41.643Z,4.47
2023-01-28T01:25:08.529Z,4.46
2023-01-28T01:27:34.849Z,4.44
2023-01-28T01:30:01.183Z,4.42
2023-01-28T01:32:32.042Z,4.41
2023-01-28T01:34:58.692Z,4.37
2023-01-28T01:37:25.165Z,4.34
2023-01-28T01:39:51.494Z,4.31
2023-01-28T01:42:17.854Z,4.27
2023-01-28T01:45:07.935Z,4.22
2023-01-28T01:48:01.572Z,4.17
2023-01-28T01:50:39.389Z,4.15
2023-01-28T01:53:13.999Z,4.13
2023-01-28T01:55:45.800Z,4.14
2023-01-28T01:58:19.689Z,4.13
2023-01-28T02:00:46.432Z,4.14
2023-01-28T02:03:13.100Z,4.12
2023-01-28T02:05:40.188Z,4.13
2023-01-28T02:08:22.153Z,4.10
2023-01-28T02:11:02.889Z,4.11
2023-01-28T02:13:34.365Z,4.10
2023-01-28T02:16:01.677Z,4.09
2023-01-28T02:18:28.122Z,4.09
2023-01-28T02:20:57.316Z,4.08
2023-01-28T02:23:46.585Z,4.07
2023-01-28T02:26:58.461Z,4.07
2023-01-28T02:29:52.648Z,4.03
2023-01-28T02:32:41.082Z,4.00
2023-01-28T02:35:17.140Z,3.99
2023-01-28T02:37:59.598Z,3.96
2023-01-28T02:40:34.099Z,3.93
2023-01-28T02:43:00.449Z,3.92
2023-01-28T02:45:50.287Z,3.93
2023-01-28T02:48:18.980Z,3.95
2023-01-28T02:51:06.280Z,3.95
2023-01-28T02:53:45.072Z,3.98
2023-01-28T02:56:52.612Z,4.01
2023-01-28T02:59:36.772Z,4.03
2023-01-28T03:02:40.102Z,4.04
2023-01-28T03:05:31.561Z,4.05
2023-01-28T03:07:58.238Z,4.04
2023-01-28T03:10:27.178Z,4.03
2023-01-28T03:13:15.190Z,4.03
2023-01-28T03:16:05.129Z,4.02
2023-01-28T03:19:10.258Z,3.98
2023-01-28T03:22:03.202Z,3.96
2023-01-28T03:24:52.683Z,3.94
2023-01-28T03:27:44.183Z,3.93
2023-01-28T03:30:55.883Z,3.90
2023-01-28T03:33:42.831Z,3.90
2023-01-28T03:36:28.052Z,3.89
2023-01-28T03:38:54.481Z,3.88
2023-01-28T03:41:23.588Z,3.87
2023-01-28T03:43:50.962Z,3.87
2023-01-28T03:46:18.430Z,3.85
2023-01-28T03:48:45.486Z,3.84
2023-01-28T03:51:12.500Z,3.83
2023-01-28T03:53:40.252Z,3.82
2023-01-28T03:56:07.226Z,3.83
2023-01-28T03:58:51.973Z,3.84
2023-01-28T04:01:19.342Z,3.85
2023-01-28T04:03:45.724Z,3.84
2023-01-28T04:06:12.159Z,3.86
2023-01-28T04:08:38.539Z,3.86
2023-01-28T04:11:19.458Z,3.86
2023-01-28T04:13:47.255Z,3.84
2023-01-28T04:16:16.189Z,3.84
2023-01-28T04:18:43.712Z,3.82
2023-01-28T04:21:10.135Z,3.81
2023-01-28T04:23:36.498Z,3.79
2023-01-28T04:26:04.072Z,3.79
2023-01-28T04:28:30.936Z,3.79
2023-01-28T04:30:57.442Z,3.79
2023-01-28T04:33:23.836Z,3.80
2023-01-28T04:35:50.186Z,3.81
2023-01-28T04:38:16.536Z,3.81
2023-01-28T04:40:42.952Z,3.82
2023-01-28T04:43:09.365Z,3.84
2023-01-28T04:45:35.718Z,3.86
2023-01-28T04:48:02.127Z,3.86
2023-01-28T04:50:28.487Z,3.87
2023-01-28T04:52:54.888Z,3.86
2023-01-28T04:55:21.329Z,3.83
2023-01-28T04:57:48.676Z,3.79
2023-01-28T05:00:15.328Z,3.74
2023-01-28T05:02:41.857Z,3.71
2023-01-28T05:05:11.152Z,3.65
2023-01-28T05:07:37.792Z,3.64
2023-01-28T05:10:04.936Z,3.61
2023-01-28T05:12:32.914Z,3.58
2023-01-28T05:15:02.473Z,3.56
2023-01-28T05:17:29.313Z,3.53
2023-01-28T05:19:55.722Z,3.51
2023-01-28T05:22:22.609Z,3.48
2023-01-28T05:24:48.956Z,3.46
2023-01-28T05:27:15.324Z,3.42
2023-01-28T05:29:41.680Z,3.41
2023-01-28T05:32:08.095Z,3.39
2023-01-28T05:34:34.436Z,3.37
2023-01-28T05:37:00.836Z,3.36
2023-01-28T05:39:27.223Z,3.36
2023-01-28T05:41:53.571Z,3.39
2023-01-28T05:44:19.926Z,3.41
2023-01-28T05:46:46.684Z,3.43
2023-01-28T05:49:13.570Z,3.45
2023-01-28T05:51:40.378Z,3.47
2023-01-28T05:54:07.561Z,3.49
2023-01-28T05:56:35.026Z,3.49
2023-01-28T05:59:01.400Z,3.51
2023-01-28T06:01:27.785Z,3.53
2023-01-28T06:03:54.246Z,3.56
2023-01-28T06:06:21.087Z,3.59
2023-01-28T06:08:47.512Z,3.62
2023-01-28T06:11:13.855Z,3.65
2023-01-28T06:13:41.661Z,3.66
2023-01-28T06:16:08.468Z,3.71
2023-01-28T06:18:34.850Z,3.72
2023-01-28T06:21:01.214Z,3.72
2023-01-28T06:23:27.525Z,3.71
2023-01-28T06:25:56.960Z,3.70
2023-01-28T06:28:24.559Z,3.68
2023-01-28T06:30:52.702Z,3.66
2023-01-28T06:33:20.311Z,3.65
2023-01-28T06:35:46.896Z,3.65
2023-01-28T06:38:14.136Z,3.65
2023-01-28T06:40:40.464Z,3.64
2023-01-28T06:43:07.130Z,3.63
2023-01-28T06:45:33.788Z,3.62
2023-01-28T06:48:00.134Z,3.63
2023-01-28T06:50:26.638Z,3.63
2023-01-28T06:52:52.938Z,3.63
2023-01-28T06:55:19.336Z,3.60
2023-01-28T06:57:45.724Z,3.58
2023-01-28T07:00:15.057Z,3.56
2023-01-28T07:02:42.061Z,3.56
2023-01-28T07:05:08.868Z,3.54
2023-01-28T07:07:35.250Z,3.54
2023-01-28T07:10:01.611Z,3.55
2023-01-28T07:12:28.027Z,3.55
2023-01-28T07:14:54.396Z,3.57
2023-01-28T07:17:20.794Z,3.58
2023-01-28T07:19:47.288Z,3.58
2023-01-28T07:22:13.618Z,3.57
2023-01-28T07:24:39.937Z,3.57
2023-01-28T07:27:07.383Z,3.57
2023-01-28T07:29:34.000Z,3.56
2023-01-28T07:32:00.491Z,3.54
2023-01-28T07:34:27.176Z,3.49
2023-01-28T07:36:54.268Z,3.47
2023-01-28T07:39:21.570Z,3.43
2023-01-28T07:41:48.091Z,3.40
2023-01-28T07:44:14.437Z,3.37
2023-01-28T07:46:40.859Z,3.35
2023-01-28T07:49:07.629Z,3.34
2023-01-28T07:51:33.971Z,3.33
2023-01-28T07:54:00.906Z,3.32
2023-01-28T07:56:29.403Z,3.32
2023-01-28T07:58:55.790Z,3.34
2023-01-28T08:01:22.261Z,3.34
2023-01-28T08:03:48.663Z,3.34
2023-01-28T08:06:15.094Z,3.35
2023-01-28T08:08:41.427Z,3.36
2023-01-28T08:11:11.552Z,3.39
2023-01-28T08:13:38.195Z,3.41
2023-01-28T08:16:05.186Z,3.46
2023-01-28T08:18:32.011Z,3.51
2023-01-28T08:20:59.448Z,3.59
2023-01-28T08:23:27.020Z,3.66
2023-01-28T08:25:53.966Z,3.69
2023-01-28T08:28:21.706Z,3.73
2023-01-28T08:30:48.249Z,3.74
2023-01-28T08:33:16.269Z,3.74
2023-01-28T08:35:42.867Z,3.74
2023-01-28T08:38:11.871Z,3.72
2023-01-28T08:40:38.291Z,3.70
2023-01-28T08:43:04.935Z,3.68
2023-01-28T08:45:32.012Z,3.66
2023-01-28T08:48:03.852Z,3.63
2023-01-28T08:50:33.237Z,3.63
2023-01-28T08:53:07.877Z,3.63
2023-01-28T08:55:34.646Z,3.65
2023-01-28T08:58:06.151Z,3.67
2023-01-28T09:00:34.144Z,3.68
2023-01-28T09:03:00.595Z,3.69
2023-01-28T09:05:27.010Z,3.71
2023-01-28T09:07:53.435Z,3.70
2023-01-28T09:10:23.257Z,3.70
2023-01-28T09:12:49.652Z,3.70
2023-01-28T09:15:17.851Z,3.69
2023-01-28T09:17:44.501Z,3.66
2023-01-28T09:20:12.583Z,3.64
2023-01-28T09:22:39.210Z,3.61
2023-01-28T09:25:06.917Z,3.57
2023-01-28T09:27:33.621Z,3.55
2023-01-28T09:29:59.960Z,3.55
2023-01-28T09:32:26.313Z,3.56
2023-01-28T09:34:52.727Z,3.59
2023-01-28T09:37:19.124Z,3.64
2023-01-28T09:39:54.903Z,3.68
2023-01-28T09:42:36.682Z,3.76
2023-01-28T09:45:25.242Z,3.83
2023-01-28T09:47:54.241Z,3.89
2023-01-28T09:50:30.208Z,3.95
2023-01-28T09:53:06.369Z,3.99
2023-01-28T09:55:46.118Z,4.01
2023-01-28T09:58:16.035Z,4.01
2023-01-28T10:01:08.419Z,4.01
2023-01-28T10:03:38.095Z,4.00
2023-01-28T10:06:27.670Z,4.00
2023-01-28T10:09:06.392Z,3.98
2023-01-28T10:11:45.156Z,3.99
2023-01-28T10:14:26.688Z,3.97
2023-01-28T10:17:20.112Z,4.00
2023-01-28T10:20:08.094Z,4.04
2023-01-28T10:22:42.303Z,4.07
2023-01-28T10:25:19.595Z,4.11
2023-01-28T10:27:48.033Z,4.16
2023-01-28T10:30:25.510Z,4.24
2023-01-28T10:33:27.144Z,4.32
2023-01-28T10:35:55.529Z,4.38
2023-01-28T10:38:24.265Z,4.45
2023-01-28T10:40:51.607Z,4.52
2023-01-28T10:43:22.607Z,4.62
2023-01-28T10:46:02.901Z,4.72
2023-01-28T10:48:34.288Z,4.83
2023-01-28T10:51:05.057Z,4.92
2023-01-28T10:53:41.836Z,5.03
2023-01-28T10:56:11.641Z,5.13
2023-01-28T10:58:54.306Z,5.22
2023-01-28T11:01:20.917Z,5.33
2023-01-28T11:03:58.443Z,5.43
2023-01-28T11:06:28.069Z,5.52
2023-01-28T11:08:54.754Z,5.61
2023-01-28T11:11:26.697Z,5.71
2023-01-28T11:13:54.681Z,5.80
2023-01-28T11:16:21.766Z,5.87
2023-01-28T11:19:00.527Z,5.94
2023-01-28T11:21:29.863Z,6.00
2023-01-28T11:24:00.567Z,6.06
2023-01-28T11:26:30.922Z,6.12
2023-01-28T11:28:57.327Z,6.15
2023-01-28T11:31:24.621Z,6.18
2023-01-28T11:33:59.721Z,6.22
2023-01-28T11:36:28.715Z,6.24
2023-01-28T11:38:57.947Z,6.23
2023-01-28T11:41:31.306Z,6.24
2023-01-28T11:43:59.910Z,6.23
2023-01-28T11:46:46.613Z,6.22
2023-01-28T11:49:50.651Z,6.23
2023-01-28T11:52:55.211Z,6.24
2023-01-28T11:55:37.051Z,6.20
2023-01-28T11:58:26.707Z,6.16
2023-01-28T12:01:07.852Z,6.12
2023-01-28T12:03:51.699Z,6.09
2023-01-28T12:06:52.870Z,6.06
2023-01-28T12:09:32.577Z,6.03
2023-01-28T12:12:30.296Z,6.02
2023-01-28T12:15:34.268Z,6.00
2023-01-28T12:18:00.582Z,5.97
2023-01-28T12:20:35.988Z,5.95
2023-01-28T12:23:11.765Z,5.96
2023-01-28T12:26:04.532Z,5.98
2023-01-28T12:28:51.917Z,6.01
2023-01-28T12:31:45.400Z,6.00
2023-01-28T12:34:32.342Z,6.01
2023-01-28T12:37:23.900Z,6.03
2023-01-28T12:39:55.474Z,6.06
2023-01-28T12:42:38.803Z,6.08
2023-01-28T12:45:49.215Z,6.13
2023-01-28T12:48:34.348Z,6.22
2023-01-28T12:51:08.181Z,6.26
2023-01-28T12:53:42.196Z,6.35
2023-01-28T12:56:29.774Z,6.43
2023-01-28T12:59:06.966Z,6.50
2023-01-28T13:01:51.070Z,6.59
2023-01-28T13:04:34.136Z,6.66
2023-01-28T13:07:16.941Z,6.71
2023-01-28T13:10:00.368Z,6.73
2023-01-28T13:12:27.033Z,6.75
2023-01-28T13:14:54.348Z,6.76
2023-01-28T13:17:38.796Z,6.77
2023-01-28T13:20:16.439Z,6.79
2023-01-28T13:22:44.344Z,6.81
2023-01-28T13:25:19.697Z,6.83
2023-01-28T13:27:58.744Z,6.87
2023-01-28T13:30:31.621Z,6.92
2023-01-28T13:33:03.934Z,6.96
2023-01-28T13:35:37.597Z,7.02
2023-01-28T13:38:19.590Z,7.08
2023-01-28T13:40:57.192Z,7.12
2023-01-28T13:43:38.686Z,7.16
2023-01-28T13:46:11.441Z,7.19
2023-01-28T13:48:46.412Z,7.20
2023-01-28T13:51:20.503Z,7.20
2023-01-28T13:54:16.891Z,7.20
2023-01-28T13:57:01.477Z,7.21
2023-01-28T13:59:46.714Z,7.18
2023-01-28T14:02:36.759Z,7.15
2023-01-28T14:05:27.229Z,7.13
2023-01-28T14:08:27.658Z,7.12
2023-01-28T14:11:20.129Z,7.10
2023-01-28T14:14:19.103Z,7.10
2023-01-28T14:17:08.127Z,7.08
2023-01-28T14:19:37.358Z,7.06
2023-01-28T14:22:08.642Z,7.04
2023-01-28T14:24:37.762Z,7.01
2023-01-28T14:27:27.609Z,6.99
2023-01-28T14:30:07.507Z,6.97
2023-01-28T14:32:35.126Z,6.92
2023-01-28T14:35:08.678Z,6.90
2023-01-28T14:37:35.719Z,6.83
2023-01-28T14:40:14.733Z,6.80
2023-01-28T14:42:45.040Z,6.77
2023-01-28T14:45:23.714Z,6.73
2023-01-28T14:48:25.442Z,6.69
2023-01-28T14:51:03.839Z,6.67
2023-01-28T14:53:50.511Z,6.62
2023-01-28T14:56:41.689Z,6.60
2023-01-28T14:59:24.821Z,6.55
2023-01-28T15:01:57.429Z,6.52
2023-01-28T15:04:26.692Z,6.50
2023-01-28T15:06:53.530Z,6.46
2023-01-28T15:09:23.194Z,6.42
2023-01-28T15:11:54.259Z,6.38
2023-01-28T15:14:30.125Z,6.34
2023-01-28T15:16:56.852Z,6.29
2023-01-28T15:19:35.987Z,6.24
2023-01-28T15:22:06.011Z,6.21
2023-01-28T15:24:35.287Z,6.17
2023-01-28T15:27:02.567Z,6.13
2023-01-28T15:29:35.416Z,6.11
2023-01-28T15:32:02.998Z,6.08
2023-01-28T15:34:32.645Z,6.09
2023-01-28T15:37:01.063Z,6.06
2023-01-28T15:39:29.223Z,6.05
2023-01-28T15:42:04.521Z,6.04
2023-01-28T15:44:42.459Z,6.02
2023-01-28T15:47:23.590Z,6.02
2023-01-28T15:49:56.003Z,6.00
2023-01-28T15:52:32.368Z,5.98
2023-01-28T15:54:58.787Z,5.94
2023-01-28T15:57:28.566Z,5.93
2023-01-28T16:00:13.247Z,5.87
2023-01-28T16:02:47.796Z,5.86
2023-01-28T16:06:18.954Z,5.82
2023-01-28T16:09:02.593Z,5.79
2023-01-28T16:11:41.491Z,5.71
2023-01-28T16:14:36.123Z,5.65
2023-01-28T16:17:02.719Z,5.58
2023-01-28T16:19:45.959Z,5.50
2023-01-28T16:22:32.134Z,5.41
2023-01-28T16:24:58.408Z,5.36
2023-01-28T16:27:25.669Z,5.31
2023-01-28T16:29:52.070Z,5.18
2023-01-28T16:32:35.428Z,5.04
2023-01-28T16:35:03.158Z,4.93
2023-01-28T16:37:29.469Z,4.82
2023-01-28T16:39:56.196Z,4.74
2023-01-28T16:42:23.295Z,4.66
2023-01-28T16:44:49.592Z,4.59
2023-01-28T16:47:16.063Z,4.54
2023-01-28T16:49:42.407Z,4.49
2023-01-28T16:52:11.333Z,4.45
2023-01-28T16:54:39.405Z,4.37
2023-01-28T16:57:05.766Z,4.31
2023-01-28T16:59:32.229Z,4.27
2023-01-28T17:01:58.619Z,4.21
2023-01-28T17:04:25.039Z,4.15
2023-01-28T17:06:53.161Z,4.08
2023-01-28T17:09:19.678Z,4.01
2023-01-28T17:11:45.987Z,3.93
2023-01-28T17:14:12.383Z,3.87
2023-01-28T17:16:39.105Z,3.82
2023-01-28T17:19:05.831Z,3.78
2023-01-28T17:21:32.162Z,3.73
2023-01-28T17:24:00.166Z,3.70
2023-01-28T17:26:35.220Z,3.67
2023-01-28T17:29:02.954Z,3.64
2023-01-28T17:31:29.358Z,3.59
2023-01-28T17:33:58.416Z,3.56
2023-01-28T17:36:26.087Z,3.51
2023-01-28T17:38:53.514Z,3.45
2023-01-28T17:41:20.588Z,3.41
2023-01-28T17:43:51.537Z,3.36
2023-01-28T17:46:19.014Z,3.32
2023-01-28T17:48:46.089Z,3.24
2023-01-28T17:51:14.229Z,3.20
2023-01-28T17:53:45.524Z,3.16
2023-01-28T17:56:31.045Z,3.11
2023-01-28T17:59:03.412Z,3.07
2023-01-28T18:01:31.095Z,3.02
2023-01-28T18:03:58.486Z,2.99
2023-01-28T18:06:24.990Z,2.94
2023-01-28T18:08:51.526Z,2.90
2023-01-28T18:11:19.685Z,2.86
2023-01-28T18:13:46.955Z,2.83
2023-01-28T18:16:17.117Z,2.79
2023-01-28T18:18:44.299Z,2.77
2023-01-28T18:21:51.857Z,2.74
2023-01-28T18:24:19.226Z,2.72
2023-01-28T18:26:45.712Z,2.72
2023-01-28T18:29:20.212Z,2.71
2023-01-28T18:31:48.237Z,2.73
2023-01-28T18:34:15.058Z,2.73
2023-01-28T18:36:41.808Z,2.77
2023-01-28T18:39:12.468Z,2.79
2023-01-28T18:41:39.433Z,2.83
2023-01-28T18:44:07.567Z,2.85
2023-01-28T18:46:34.138Z,2.90
2023-01-28T18:49:00.536Z,2.94
2023-01-28T18:51:30.405Z,2.98
2023-01-28T18:53:58.863Z,3.02
2023-01-28T18:56:26.216Z,3.06
2023-01-28T18:59:00.252Z,3.12
2023-01-28T19:01:27.724Z,3.15
2023-01-28T19:03:55.342Z,3.18
2023-01-28T19:06:22.132Z,3.21
2023-01-28T19:08:54.016Z,3.24
2023-01-28T19:11:21.350Z,3.25
2023-01-28T19:13:47.684Z,3.28
2023-01-28T19:16:14.142Z,3.31
2023-01-28T19:18:40.734Z,3.32
2023-01-28T19:21:07.714Z,3.34
2023-01-28T19:23:48.174Z,3.36
2023-01-28T19:26:20.761Z,3.38
2023-01-28T19:28:49.108Z,3.38
2023-01-28T19:31:15.640Z,3.42
2023-01-28T19:33:42.035Z,3.42
2023-01-28T19:36:09.856Z,3.45
2023-01-28T19:38:36.273Z,3.48
2023-01-28T19:41:04.669Z,3.51
2023-01-28T19:43:31.451Z,3.54
2023-01-28T19:45:59.874Z,3.57
2023-01-28T19:48:27.211Z,3.60
2023-01-28T19:50:54.071Z,3.62
2023-01-28T19:53:20.668Z,3.65
2023-01-28T19:55:47.247Z,3.67
2023-01-28T19:58:14.021Z,3.70
2023-01-28T20:00:41.448Z,3.72
2023-01-28T20:03:08.271Z,3.72
2023-01-28T20:05:35.700Z,3.73
2023-01-28T20:08:02.273Z,3.73
2023-01-28T20:10:28.772Z,3.76
2023-01-28T20:12:55.170Z,3.76
2023-01-28T20:15:21.854Z,3.77
2023-01-28T20:17:48.280Z,3.78
2023-01-28T20:20:14.718Z,3.79
2023-01-28T20:22:41.479Z,3.80
2023-01-28T20:25:08.753Z,3.79
2023-01-28T20:27:35.208Z,3.82
2023-01-28T20:30:01.710Z,3.83
2023-01-28T20:32:28.119Z,3.83
2023-01-28T20:34:54.470Z,3.86
2023-01-28T20:37:21.001Z,3.87
2023-01-28T20:39:47.389Z,3.88
2023-01-28T20:42:14.053Z,3.89
2023-01-28T20:44:40.388Z,3.89
2023-01-28T20:47:06.788Z,3.91
2023-01-28T20:49:33.309Z,3.91
2023-01-28T20:51:59.921Z,3.92
2023-01-28T20:54:26.249Z,3.93
2023-01-28T20:56:53.172Z,3.94
2023-01-28T20:59:19.599Z,3.96
2023-01-28T21:01:46.725Z,3.96
2023-01-28T21:04:13.296Z,3.97
2023-01-28T21:06:42.639Z,3.99
2023-01-28T21:09:09.307Z,4.00
2023-01-28T21:11:35.732Z,4.02
2023-01-28T21:14:02.056Z,4.02
2023-01-28T21:16:28.504Z,4.03
2023-01-28T21:18:55.003Z,4.03
2023-01-28T21:21:26.963Z,4.03
2023-01-28T21:23:56.684Z,4.03
2023-01-28T21:26:23.835Z,4.05
2023-01-28T21:28:50.202Z,4.05
2023-01-28T21:31:25.592Z,4.04
2023-01-28T21:33:57.344Z,4.06
2023-01-28T21:36:25.679Z,4.07
2023-01-28T21:38:53.892Z,4.07
2023-01-28T21:41:20.437Z,4.07
2023-01-28T21:43:53.315Z,4.08
2023-01-28T21:46:23.994Z,4.08
2023-01-28T21:48:54.887Z,4.08
2023-01-28T21:51:37.750Z,4.06
2023-01-28T21:54:05.807Z,4.07
2023-01-28T21:56:32.236Z,4.07
2023-01-28T21:59:17.350Z,4.06
2023-01-28T22:01:44.758Z,4.04
2023-01-28T22:04:11.472Z,4.04
2023-01-28T22:06:37.879Z,4.03
2023-01-28T22:09:05.082Z,4.01
2023-01-28T22:11:31.560Z,4.01
2023-01-28T22:13:57.896Z,4.01
2023-01-28T22:16:24.263Z,4.00
2023-01-28T22:18:50.581Z,4.01
2023-01-28T22:21:17.024Z,4.00
2023-01-28T22:23:43.380Z,3.95
2023-01-28T22:26:09.805Z,3.96
2023-01-28T22:28:36.553Z,3.93
2023-01-28T22:31:12.826Z,3.93
2023-01-28T22:33:40.216Z,3.94
2023-01-28T22:36:10.008Z,3.94
2023-01-28T22:38:36.882Z,3.92
2023-01-28T22:41:05.276Z,3.92
2023-01-28T22:43:31.878Z,3.92
2023-01-28T22:45:59.988Z,3.92
2023-01-28T22:48:26.547Z,3.93
2023-01-28T22:50:52.876Z,3.93
2023-01-28T22:53:19.417Z,3.93
2023-01-28T22:55:50.454Z,3.95
2023-01-28T22:58:16.805Z,3.94
2023-01-28T23:00:43.180Z,3.93
2023-01-28T23:03:09.873Z,3.94
2023-01-28T23:05:36.603Z,3.95
2023-01-28T23:08:12.379Z,3.95
2023-01-28T23:10:41.196Z,3.94
2023-01-28T23:13:07.754Z,3.95
2023-01-28T23:15:52.723Z,3.93
2023-01-28T23:18:40.382Z,3.94
2023-01-28T23:21:44.030Z,3.93
2023-01-28T23:24:24.194Z,3.94
2023-01-28T23:26:52.115Z,3.92
2023-01-28T23:29:20.278Z,3.91
2023-01-28T23:31:47.891Z,3.91
2023-01-28T23:34:16.965Z,3.89
2023-01-28T23:36:43.602Z,3.88
2023-01-28T23:39:10.579Z,3.86
2023-01-28T23:41:37.092Z,3.85
2023-01-28T23:44:04.932Z,3.86
2023-01-28T23:46:39.456Z,3.85
2023-01-28T23:49:06.377Z,3.86
2023-01-28T23:51:32.705Z,3.87
2023-01-28T23:53:59.057Z,3.86
2023-01-28T23:56:25.501Z,3.88
2023-01-28T23:58:51.924Z,3.88
